sensor_id;sensor_type;location;lat;lon;timestamp;P1;durP1;ratioP1;P2;durP2;ratioP2
66919;SDS011;53831;52.090;17.026;2023-03-23T00:00:36;26.40;;;15.00;;
66919;SDS011;53831;52.090;17.026;2023-03-23T00:01:36;30.40;;;15.80;;
66919;SDS011;53831;52.090;17.026;2023-03-23T00:02:37;28.40;;;15.00;;
66919;SDS011;53831;52.090;17.026;2023-03-23T00:03:39;22.60;;;13.70;;
66919;SDS011;53831;52.090;17.026;2023-03-23T00:04:40;23.40;;;13.90;;
66919;SDS011;53831;52.090;17.026;2023-03-23T00:05:43;24.20;;;14.20;;
66919;SDS011;53831;52.090;17.026;2023-03-23T00:06:50;24.30;;;13.70;;
66919;SDS011;53831;52.090;17.026;2023-03-23T00:07:50;21.60;;;13.20;;
66919;SDS011;53831;52.090;17.026;2023-03-23T00:08:54;22.70;;;13.00;;
66919;SDS011;53831;52.090;17.026;2023-03-23T00:09:59;22.10;;;13.70;;
66919;SDS011;53831;52.090;17.026;2023-03-23T00:11:04;27.10;;;13.90;;
66919;SDS011;53831;52.090;17.026;2023-03-23T00:12:04;25.80;;;14.50;;
66919;SDS011;53831;52.090;17.026;2023-03-23T00:13:05;20.00;;;13.20;;
66919;SDS011;53831;52.090;17.026;2023-03-23T00:14:06;23.80;;;13.50;;
66919;SDS011;53831;52.090;17.026;2023-03-23T00:15:13;21.40;;;13.50;;
66919;SDS011;53831;52.090;17.026;2023-03-23T00:16:18;22.20;;;13.60;;
66919;SDS011;53831;52.090;17.026;2023-03-23T00:17:19;23.90;;;14.10;;
66919;SDS011;53831;52.090;17.026;2023-03-23T00:18:20;26.10;;;13.80;;
66919;SDS011;53831;52.090;17.026;2023-03-23T00:19:21;23.50;;;13.80;;
66919;SDS011;53831;52.090;17.026;2023-03-23T00:20:22;24.90;;;13.40;;
66919;SDS011;53831;52.090;17.026;2023-03-23T00:21:27;24.60;;;13.60;;
66919;SDS011;53831;52.090;17.026;2023-03-23T00:22:34;24.50;;;13.70;;
66919;SDS011;53831;52.090;17.026;2023-03-23T00:23:38;20.80;;;13.30;;
66919;SDS011;53831;52.090;17.026;2023-03-23T00:24:40;20.20;;;12.40;;
66919;SDS011;53831;52.090;17.026;2023-03-23T00:25:41;22.70;;;13.50;;
66919;SDS011;53831;52.090;17.026;2023-03-23T00:26:44;22.80;;;12.80;;
66919;SDS011;53831;52.090;17.026;2023-03-23T00:27:45;21.50;;;13.00;;
66919;SDS011;53831;52.090;17.026;2023-03-23T00:28:45;23.60;;;13.40;;
66919;SDS011;53831;52.090;17.026;2023-03-23T00:29:48;23.80;;;13.20;;
66919;SDS011;53831;52.090;17.026;2023-03-23T00:30:48;24.60;;;13.50;;
66919;SDS011;53831;52.090;17.026;2023-03-23T00:31:49;22.70;;;13.70;;
66919;SDS011;53831;52.090;17.026;2023-03-23T00:32:50;26.80;;;15.00;;
66919;SDS011;53831;52.090;17.026;2023-03-23T00:33:51;25.70;;;16.80;;
66919;SDS011;53831;52.090;17.026;2023-03-23T00:34:57;26.00;;;14.00;;
66919;SDS011;53831;52.090;17.026;2023-03-23T00:36:00;22.60;;;13.60;;
66919;SDS011;53831;52.090;17.026;2023-03-23T00:37:01;22.60;;;13.20;;
66919;SDS011;53831;52.090;17.026;2023-03-23T00:38:02;22.90;;;14.30;;
66919;SDS011;53831;52.090;17.026;2023-03-23T00:39:03;19.10;;;12.00;;
66919;SDS011;53831;52.090;17.026;2023-03-23T00:40:04;21.90;;;12.60;;
66919;SDS011;53831;52.090;17.026;2023-03-23T00:41:11;20.00;;;12.20;;
66919;SDS011;53831;52.090;17.026;2023-03-23T00:42:14;22.80;;;13.40;;
66919;SDS011;53831;52.090;17.026;2023-03-23T00:43:17;22.10;;;12.70;;
66919;SDS011;53831;52.090;17.026;2023-03-23T00:44:18;23.60;;;13.60;;
66919;SDS011;53831;52.090;17.026;2023-03-23T00:45:19;23.10;;;13.30;;
66919;SDS011;53831;52.090;17.026;2023-03-23T00:46:20;21.00;;;13.20;;
66919;SDS011;53831;52.090;17.026;2023-03-23T00:47:21;21.50;;;13.80;;
66919;SDS011;53831;52.090;17.026;2023-03-23T00:48:24;20.60;;;12.80;;
66919;SDS011;53831;52.090;17.026;2023-03-23T00:49:26;20.40;;;12.70;;
66919;SDS011;53831;52.090;17.026;2023-03-23T00:50:28;25.30;;;12.80;;
66919;SDS011;53831;52.090;17.026;2023-03-23T00:51:29;21.40;;;12.00;;
66919;SDS011;53831;52.090;17.026;2023-03-23T00:52:30;21.20;;;12.40;;
66919;SDS011;53831;52.090;17.026;2023-03-23T00:53:30;24.90;;;12.50;;
66919;SDS011;53831;52.090;17.026;2023-03-23T00:54:31;21.10;;;12.20;;
66919;SDS011;53831;52.090;17.026;2023-03-23T00:55:32;21.60;;;12.50;;
66919;SDS011;53831;52.090;17.026;2023-03-23T00:56:34;24.10;;;14.20;;
66919;SDS011;53831;52.090;17.026;2023-03-23T00:57:35;24.70;;;14.30;;
66919;SDS011;53831;52.090;17.026;2023-03-23T00:58:36;25.70;;;14.00;;
66919;SDS011;53831;52.090;17.026;2023-03-23T00:59:36;26.50;;;14.30;;
66919;SDS011;53831;52.090;17.026;2023-03-23T01:00:37;24.50;;;14.20;;
66919;SDS011;53831;52.090;17.026;2023-03-23T01:01:39;24.10;;;13.50;;
66919;SDS011;53831;52.090;17.026;2023-03-23T01:03:40;20.40;;;12.10;;
66919;SDS011;53831;52.090;17.026;2023-03-23T01:04:41;22.50;;;12.00;;
66919;SDS011;53831;52.090;17.026;2023-03-23T01:05:45;23.60;;;13.30;;
66919;SDS011;53831;52.090;17.026;2023-03-23T01:06:50;25.40;;;13.30;;
66919;SDS011;53831;52.090;17.026;2023-03-23T01:07:51;28.40;;;14.20;;
66919;SDS011;53831;52.090;17.026;2023-03-23T01:08:52;25.90;;;13.60;;
66919;SDS011;53831;52.090;17.026;2023-03-23T01:09:54;22.30;;;12.80;;
66919;SDS011;53831;52.090;17.026;2023-03-23T01:11:02;21.10;;;12.60;;
66919;SDS011;53831;52.090;17.026;2023-03-23T01:12:04;22.90;;;12.60;;
66919;SDS011;53831;52.090;17.026;2023-03-23T01:13:07;22.60;;;12.30;;
66919;SDS011;53831;52.090;17.026;2023-03-23T01:14:08;20.30;;;11.90;;
66919;SDS011;53831;52.090;17.026;2023-03-23T01:16:10;21.00;;;11.80;;
66919;SDS011;53831;52.090;17.026;2023-03-23T01:17:19;20.70;;;11.10;;
66919;SDS011;53831;52.090;17.026;2023-03-23T01:18:21;20.30;;;11.70;;
66919;SDS011;53831;52.090;17.026;2023-03-23T01:19:22;22.30;;;12.30;;
66919;SDS011;53831;52.090;17.026;2023-03-23T01:20:23;20.10;;;11.90;;
66919;SDS011;53831;52.090;17.026;2023-03-23T01:21:24;21.50;;;12.60;;
66919;SDS011;53831;52.090;17.026;2023-03-23T01:22:25;20.40;;;11.70;;
66919;SDS011;53831;52.090;17.026;2023-03-23T01:23:26;18.30;;;11.50;;
66919;SDS011;53831;52.090;17.026;2023-03-23T01:24:26;19.80;;;11.80;;
66919;SDS011;53831;52.090;17.026;2023-03-23T01:25:31;17.70;;;11.20;;
66919;SDS011;53831;52.090;17.026;2023-03-23T01:26:32;19.20;;;11.50;;
66919;SDS011;53831;52.090;17.026;2023-03-23T01:27:33;18.60;;;11.70;;
66919;SDS011;53831;52.090;17.026;2023-03-23T01:28:35;19.60;;;12.40;;
66919;SDS011;53831;52.090;17.026;2023-03-23T01:29:36;19.50;;;11.20;;
66919;SDS011;53831;52.090;17.026;2023-03-23T01:30:37;21.20;;;11.70;;
66919;SDS011;53831;52.090;17.026;2023-03-23T01:31:38;20.70;;;10.50;;
66919;SDS011;53831;52.090;17.026;2023-03-23T01:32:40;21.70;;;11.20;;
66919;SDS011;53831;52.090;17.026;2023-03-23T01:33:41;23.20;;;11.90;;
66919;SDS011;53831;52.090;17.026;2023-03-23T01:34:43;21.70;;;11.60;;
66919;SDS011;53831;52.090;17.026;2023-03-23T01:35:43;19.90;;;11.20;;
66919;SDS011;53831;52.090;17.026;2023-03-23T01:36:44;19.20;;;10.10;;
66919;SDS011;53831;52.090;17.026;2023-03-23T01:37:45;17.30;;;10.00;;
66919;SDS011;53831;52.090;17.026;2023-03-23T01:38:49;16.80;;;10.00;;
66919;SDS011;53831;52.090;17.026;2023-03-23T01:39:50;22.60;;;11.00;;
66919;SDS011;53831;52.090;17.026;2023-03-23T01:40:50;16.60;;;9.20;;
66919;SDS011;53831;52.090;17.026;2023-03-23T01:41:51;15.90;;;9.80;;
66919;SDS011;53831;52.090;17.026;2023-03-23T01:42:55;16.60;;;9.80;;
66919;SDS011;53831;52.090;17.026;2023-03-23T01:44:03;17.10;;;10.20;;
66919;SDS011;53831;52.090;17.026;2023-03-23T01:46:33;18.20;;;10.30;;
66919;SDS011;53831;52.090;17.026;2023-03-23T01:47:34;18.80;;;10.20;;
66919;SDS011;53831;52.090;17.026;2023-03-23T01:48:36;17.50;;;10.80;;
66919;SDS011;53831;52.090;17.026;2023-03-23T01:49:47;16.50;;;10.10;;
66919;SDS011;53831;52.090;17.026;2023-03-23T01:50:59;17.40;;;9.90;;
66919;SDS011;53831;52.090;17.026;2023-03-23T01:52:05;15.80;;;9.70;;
66919;SDS011;53831;52.090;17.026;2023-03-23T01:53:08;17.80;;;10.20;;
66919;SDS011;53831;52.090;17.026;2023-03-23T01:54:13;17.70;;;10.60;;
66919;SDS011;53831;52.090;17.026;2023-03-23T01:55:14;17.10;;;10.20;;
66919;SDS011;53831;52.090;17.026;2023-03-23T01:56:18;16.10;;;9.80;;
66919;SDS011;53831;52.090;17.026;2023-03-23T01:57:23;17.20;;;10.10;;
66919;SDS011;53831;52.090;17.026;2023-03-23T01:58:31;16.70;;;10.00;;
66919;SDS011;53831;52.090;17.026;2023-03-23T01:59:34;16.70;;;10.00;;
66919;SDS011;53831;52.090;17.026;2023-03-23T02:00:49;16.50;;;9.60;;
66919;SDS011;53831;52.090;17.026;2023-03-23T02:01:50;17.10;;;9.10;;
66919;SDS011;53831;52.090;17.026;2023-03-23T02:02:54;16.60;;;9.00;;
66919;SDS011;53831;52.090;17.026;2023-03-23T02:03:56;16.20;;;9.60;;
66919;SDS011;53831;52.090;17.026;2023-03-23T02:05:02;16.10;;;8.40;;
66919;SDS011;53831;52.090;17.026;2023-03-23T02:06:05;13.70;;;7.70;;
66919;SDS011;53831;52.090;17.026;2023-03-23T02:07:13;14.80;;;8.10;;
66919;SDS011;53831;52.090;17.026;2023-03-23T02:08:14;14.20;;;7.90;;
66919;SDS011;53831;52.090;17.026;2023-03-23T02:09:17;14.00;;;7.90;;
66919;SDS011;53831;52.090;17.026;2023-03-23T02:10:18;16.20;;;8.00;;
66919;SDS011;53831;52.090;17.026;2023-03-23T02:11:21;12.90;;;8.00;;
66919;SDS011;53831;52.090;17.026;2023-03-23T02:12:22;13.00;;;7.90;;
66919;SDS011;53831;52.090;17.026;2023-03-23T02:13:24;13.40;;;7.80;;
66919;SDS011;53831;52.090;17.026;2023-03-23T02:14:26;13.50;;;7.80;;
66919;SDS011;53831;52.090;17.026;2023-03-23T02:15:59;12.20;;;7.30;;
66919;SDS011;53831;52.090;17.026;2023-03-23T02:17:09;13.50;;;7.70;;
66919;SDS011;53831;52.090;17.026;2023-03-23T02:18:34;13.50;;;7.50;;
66919;SDS011;53831;52.090;17.026;2023-03-23T02:21:20;11.90;;;6.70;;
66919;SDS011;53831;52.090;17.026;2023-03-23T02:25:37;10.50;;;6.60;;
66919;SDS011;53831;52.090;17.026;2023-03-23T02:26:54;11.90;;;6.30;;
66919;SDS011;53831;52.090;17.026;2023-03-23T02:28:31;11.80;;;6.90;;
66919;SDS011;53831;52.090;17.026;2023-03-23T02:33:52;10.00;;;5.90;;
66919;SDS011;53831;52.090;17.026;2023-03-23T02:35:01;11.00;;;6.20;;
66919;SDS011;53831;52.090;17.026;2023-03-23T02:37:09;11.30;;;5.80;;
66919;SDS011;53831;52.090;17.026;2023-03-23T02:38:16;11.60;;;5.90;;
66919;SDS011;53831;52.090;17.026;2023-03-23T02:39:29;11.00;;;5.80;;
66919;SDS011;53831;52.090;17.026;2023-03-23T02:40:44;9.20;;;5.70;;
66919;SDS011;53831;52.090;17.026;2023-03-23T02:41:51;9.40;;;6.00;;
66919;SDS011;53831;52.090;17.026;2023-03-23T02:42:55;9.60;;;5.60;;
66919;SDS011;53831;52.090;17.026;2023-03-23T02:43:57;10.20;;;5.60;;
66919;SDS011;53831;52.090;17.026;2023-03-23T02:45:03;11.00;;;5.80;;
66919;SDS011;53831;52.090;17.026;2023-03-23T02:46:05;11.50;;;5.90;;
66919;SDS011;53831;52.090;17.026;2023-03-23T02:47:12;11.50;;;6.00;;
66919;SDS011;53831;52.090;17.026;2023-03-23T02:48:17;12.00;;;5.90;;
66919;SDS011;53831;52.090;17.026;2023-03-23T02:49:22;11.90;;;6.20;;
66919;SDS011;53831;52.090;17.026;2023-03-23T02:50:26;11.70;;;5.60;;
66919;SDS011;53831;52.090;17.026;2023-03-23T02:51:28;11.70;;;6.00;;
66919;SDS011;53831;52.090;17.026;2023-03-23T02:52:31;9.00;;;5.50;;
66919;SDS011;53831;52.090;17.026;2023-03-23T02:53:34;11.20;;;6.10;;
66919;SDS011;53831;52.090;17.026;2023-03-23T02:54:38;10.00;;;5.40;;
66919;SDS011;53831;52.090;17.026;2023-03-23T02:55:41;10.60;;;5.40;;
66919;SDS011;53831;52.090;17.026;2023-03-23T02:56:45;10.30;;;5.60;;
66919;SDS011;53831;52.090;17.026;2023-03-23T02:57:52;10.20;;;5.60;;
66919;SDS011;53831;52.090;17.026;2023-03-23T02:58:54;9.70;;;5.40;;
66919;SDS011;53831;52.090;17.026;2023-03-23T02:59:55;9.10;;;5.40;;
66919;SDS011;53831;52.090;17.026;2023-03-23T03:00:56;13.30;;;5.90;;
66919;SDS011;53831;52.090;17.026;2023-03-23T03:03:13;11.60;;;5.40;;
66919;SDS011;53831;52.090;17.026;2023-03-23T03:04:18;10.70;;;5.60;;
66919;SDS011;53831;52.090;17.026;2023-03-23T03:05:33;9.50;;;6.10;;
66919;SDS011;53831;52.090;17.026;2023-03-23T03:09:13;13.20;;;5.90;;
66919;SDS011;53831;52.090;17.026;2023-03-23T03:10:25;9.30;;;5.60;;
66919;SDS011;53831;52.090;17.026;2023-03-23T03:11:27;12.00;;;6.60;;
66919;SDS011;53831;52.090;17.026;2023-03-23T03:13:58;8.80;;;5.40;;
66919;SDS011;53831;52.090;17.026;2023-03-23T03:15:12;9.80;;;5.80;;
66919;SDS011;53831;52.090;17.026;2023-03-23T03:16:24;11.40;;;5.80;;
66919;SDS011;53831;52.090;17.026;2023-03-23T03:17:29;8.60;;;5.70;;
66919;SDS011;53831;52.090;17.026;2023-03-23T03:18:47;11.10;;;5.60;;
66919;SDS011;53831;52.090;17.026;2023-03-23T03:20:00;9.70;;;6.10;;
66919;SDS011;53831;52.090;17.026;2023-03-23T03:21:09;9.40;;;5.90;;
66919;SDS011;53831;52.090;17.026;2023-03-23T03:22:14;12.20;;;6.60;;
66919;SDS011;53831;52.090;17.026;2023-03-23T03:23:16;9.20;;;5.70;;
66919;SDS011;53831;52.090;17.026;2023-03-23T03:24:19;13.20;;;6.10;;
66919;SDS011;53831;52.090;17.026;2023-03-23T03:25:24;13.20;;;5.90;;
66919;SDS011;53831;52.090;17.026;2023-03-23T03:26:31;11.80;;;6.30;;
66919;SDS011;53831;52.090;17.026;2023-03-23T03:27:47;11.30;;;6.10;;
66919;SDS011;53831;52.090;17.026;2023-03-23T03:28:54;10.20;;;5.70;;
66919;SDS011;53831;52.090;17.026;2023-03-23T03:29:58;10.10;;;6.00;;
66919;SDS011;53831;52.090;17.026;2023-03-23T03:31:01;9.50;;;5.80;;
66919;SDS011;53831;52.090;17.026;2023-03-23T03:32:05;8.20;;;5.90;;
66919;SDS011;53831;52.090;17.026;2023-03-23T03:33:07;11.80;;;6.00;;
66919;SDS011;53831;52.090;17.026;2023-03-23T03:34:07;11.70;;;5.90;;
66919;SDS011;53831;52.090;17.026;2023-03-23T03:35:10;10.30;;;5.70;;
66919;SDS011;53831;52.090;17.026;2023-03-23T03:36:18;9.50;;;5.60;;
66919;SDS011;53831;52.090;17.026;2023-03-23T03:37:21;9.30;;;5.60;;
66919;SDS011;53831;52.090;17.026;2023-03-23T03:38:23;11.40;;;6.00;;
66919;SDS011;53831;52.090;17.026;2023-03-23T03:39:26;10.80;;;6.30;;
66919;SDS011;53831;52.090;17.026;2023-03-23T03:40:27;10.50;;;5.80;;
66919;SDS011;53831;52.090;17.026;2023-03-23T04:08:49;13.30;;;6.60;;
66919;SDS011;53831;52.090;17.026;2023-03-23T04:28:27;8.20;;;5.40;;
66919;SDS011;53831;52.090;17.026;2023-03-23T04:54:38;9.70;;;4.80;;
66919;SDS011;53831;52.090;17.026;2023-03-23T05:05:25;11.90;;;5.30;;
66919;SDS011;53831;52.090;17.026;2023-03-23T05:23:51;9.30;;;4.90;;
66919;SDS011;53831;52.090;17.026;2023-03-23T05:25:58;9.30;;;5.40;;
66919;SDS011;53831;52.090;17.026;2023-03-23T05:39:36;13.10;;;6.60;;
66919;SDS011;53831;52.090;17.026;2023-03-23T05:43:40;16.10;;;7.10;;
66919;SDS011;53831;52.090;17.026;2023-03-23T05:52:26;15.10;;;6.90;;
66919;SDS011;53831;52.090;17.026;2023-03-23T05:56:36;14.10;;;6.40;;
66919;SDS011;53831;52.090;17.026;2023-03-23T06:09:12;10.30;;;5.10;;
66919;SDS011;53831;52.090;17.026;2023-03-23T06:13:07;9.20;;;4.70;;
66919;SDS011;53831;52.090;17.026;2023-03-23T06:25:58;5.90;;;3.50;;
66919;SDS011;53831;52.090;17.026;2023-03-23T06:41:57;9.30;;;4.80;;
66919;SDS011;53831;52.090;17.026;2023-03-23T06:43:19;7.80;;;4.20;;
66919;SDS011;53831;52.090;17.026;2023-03-23T06:49:00;8.70;;;4.30;;
66919;SDS011;53831;52.090;17.026;2023-03-23T06:59:49;6.80;;;2.90;;
66919;SDS011;53831;52.090;17.026;2023-03-23T07:03:52;5.00;;;2.90;;
66919;SDS011;53831;52.090;17.026;2023-03-23T07:05:18;6.90;;;3.40;;
66919;SDS011;53831;52.090;17.026;2023-03-23T07:07:08;8.80;;;3.30;;
66919;SDS011;53831;52.090;17.026;2023-03-23T07:19:44;4.80;;;2.80;;
66919;SDS011;53831;52.090;17.026;2023-03-23T07:25:35;4.80;;;2.30;;
66919;SDS011;53831;52.090;17.026;2023-03-23T07:27:50;5.10;;;2.80;;
66919;SDS011;53831;52.090;17.026;2023-03-23T07:31:15;4.90;;;2.70;;
66919;SDS011;53831;52.090;17.026;2023-03-23T07:32:24;8.70;;;3.30;;
66919;SDS011;53831;52.090;17.026;2023-03-23T07:35:51;6.30;;;2.70;;
66919;SDS011;53831;52.090;17.026;2023-03-23T07:40:53;8.00;;;3.30;;
66919;SDS011;53831;52.090;17.026;2023-03-23T07:42:37;5.10;;;2.90;;
66919;SDS011;53831;52.090;17.026;2023-03-23T07:44:31;5.40;;;3.00;;
66919;SDS011;53831;52.090;17.026;2023-03-23T07:47:48;7.00;;;3.10;;
66919;SDS011;53831;52.090;17.026;2023-03-23T07:51:44;7.80;;;2.60;;
66919;SDS011;53831;52.090;17.026;2023-03-23T07:53:18;6.40;;;3.30;;
66919;SDS011;53831;52.090;17.026;2023-03-23T07:55:23;6.10;;;2.90;;
66919;SDS011;53831;52.090;17.026;2023-03-23T08:18:48;12.10;;;3.50;;
66919;SDS011;53831;52.090;17.026;2023-03-23T08:28:35;7.20;;;3.30;;
66919;SDS011;53831;52.090;17.026;2023-03-23T08:30:14;6.40;;;3.30;;
66919;SDS011;53831;52.090;17.026;2023-03-23T08:32:12;8.50;;;3.40;;
66919;SDS011;53831;52.090;17.026;2023-03-23T08:36:42;8.50;;;3.40;;
66919;SDS011;53831;52.090;17.026;2023-03-23T08:41:00;6.10;;;3.20;;
66919;SDS011;53831;52.090;17.026;2023-03-23T08:42:48;8.10;;;3.70;;
66919;SDS011;53831;52.090;17.026;2023-03-23T08:46:44;6.30;;;2.90;;
66919;SDS011;53831;52.090;17.026;2023-03-23T08:52:52;4.50;;;2.50;;
66919;SDS011;53831;52.090;17.026;2023-03-23T08:59:23;5.60;;;2.70;;
66919;SDS011;53831;52.090;17.026;2023-03-23T21:17:05;18.80;;;8.60;;
66919;SDS011;53831;52.090;17.026;2023-03-23T21:22:06;16.80;;;8.40;;
66919;SDS011;53831;52.090;17.026;2023-03-23T21:27:09;17.30;;;10.70;;
66919;SDS011;53831;52.090;17.026;2023-03-23T21:32:09;18.70;;;9.10;;
66919;SDS011;53831;52.090;17.026;2023-03-23T21:37:10;18.30;;;9.90;;
66919;SDS011;53831;52.090;17.026;2023-03-23T21:42:11;17.50;;;9.30;;
66919;SDS011;53831;52.090;17.026;2023-03-23T21:47:18;17.70;;;8.70;;
66919;SDS011;53831;52.090;17.026;2023-03-23T21:52:21;19.30;;;9.30;;
66919;SDS011;53831;52.090;17.026;2023-03-23T21:57:29;15.00;;;8.30;;
66919;SDS011;53831;52.090;17.026;2023-03-23T22:02:46;16.30;;;9.00;;
66919;SDS011;53831;52.090;17.026;2023-03-23T22:14:03;19.80;;;9.50;;
66919;SDS011;53831;52.090;17.026;2023-03-23T22:19:12;13.70;;;8.00;;
66919;SDS011;53831;52.090;17.026;2023-03-23T22:24:33;14.20;;;7.10;;
66919;SDS011;53831;52.090;17.026;2023-03-23T22:29:53;14.90;;;7.80;;
66919;SDS011;53831;52.090;17.026;2023-03-23T22:40:45;17.40;;;9.20;;
66919;SDS011;53831;52.090;17.026;2023-03-23T22:46:49;18.30;;;10.10;;
66919;SDS011;53831;52.090;17.026;2023-03-23T22:52:11;20.90;;;8.70;;
66919;SDS011;53831;52.090;17.026;2023-03-23T22:57:21;15.40;;;7.20;;
66919;SDS011;53831;52.090;17.026;2023-03-23T23:02:23;13.00;;;7.30;;
66919;SDS011;53831;52.090;17.026;2023-03-23T23:07:55;12.40;;;6.40;;
66919;SDS011;53831;52.090;17.026;2023-03-23T23:18:43;11.60;;;6.70;;
66919;SDS011;53831;52.090;17.026;2023-03-23T23:29:14;12.10;;;6.20;;
66919;SDS011;53831;52.090;17.026;2023-03-23T23:34:28;9.60;;;6.20;;
66919;SDS011;53831;52.090;17.026;2023-03-23T23:40:04;13.50;;;7.00;;
66919;SDS011;53831;52.090;17.026;2023-03-23T23:45:59;14.00;;;7.90;;
66919;SDS011;53831;52.090;17.026;2023-03-23T23:51:08;13.80;;;8.00;;
66919;SDS011;53831;52.090;17.026;2023-03-23T23:56:47;11.60;;;6.40;;
